sensor_id;sensor_type;location;lat;lon;timestamp;P1;durP1;ratioP1;P2;durP2;ratioP2
76113;SDS011;64845;53.086;5.834;2022-11-15T00:02:04;20.58;;;13.90;;
76113;SDS011;64845;53.086;5.834;2022-11-15T00:04:30;19.73;;;13.32;;
76113;SDS011;64845;53.086;5.834;2022-11-15T00:06:55;27.13;;;15.48;;
76113;SDS011;64845;53.086;5.834;2022-11-15T00:09:20;21.95;;;14.27;;
76113;SDS011;64845;53.086;5.834;2022-11-15T00:11:46;23.98;;;15.10;;
76113;SDS011;64845;53.086;5.834;2022-11-15T00:14:11;21.40;;;13.60;;
76113;SDS011;64845;53.086;5.834;2022-11-15T00:16:36;20.52;;;13.90;;
76113;SDS011;64845;53.086;5.834;2022-11-15T00:19:02;20.92;;;14.10;;
76113;SDS011;64845;53.086;5.834;2022-11-15T00:21:27;23.40;;;14.15;;
76113;SDS011;64845;53.086;5.834;2022-11-15T00:23:52;25.75;;;15.35;;
76113;SDS011;64845;53.086;5.834;2022-11-15T00:26:18;23.73;;;15.88;;
76113;SDS011;64845;53.086;5.834;2022-11-15T00:28:43;21.05;;;14.52;;
76113;SDS011;64845;53.086;5.834;2022-11-15T00:31:11;24.58;;;15.13;;
76113;SDS011;64845;53.086;5.834;2022-11-15T00:33:37;24.42;;;15.13;;
76113;SDS011;64845;53.086;5.834;2022-11-15T00:36:04;23.38;;;14.70;;
76113;SDS011;64845;53.086;5.834;2022-11-15T00:38:31;25.88;;;15.98;;
76113;SDS011;64845;53.086;5.834;2022-11-15T00:40:58;27.70;;;15.35;;
76113;SDS011;64845;53.086;5.834;2022-11-15T00:43:24;23.65;;;14.88;;
76113;SDS011;64845;53.086;5.834;2022-11-15T00:45:49;23.08;;;15.60;;
76113;SDS011;64845;53.086;5.834;2022-11-15T00:48:14;21.55;;;14.52;;
76113;SDS011;64845;53.086;5.834;2022-11-15T00:50:40;27.23;;;16.60;;
76113;SDS011;64845;53.086;5.834;2022-11-15T00:53:05;22.80;;;15.18;;
76113;SDS011;64845;53.086;5.834;2022-11-15T00:55:30;25.05;;;15.48;;
76113;SDS011;64845;53.086;5.834;2022-11-15T00:57:56;23.35;;;15.23;;
76113;SDS011;64845;53.086;5.834;2022-11-15T01:00:22;25.75;;;16.30;;
76113;SDS011;64845;53.086;5.834;2022-11-15T01:02:47;24.65;;;15.48;;
76113;SDS011;64845;53.086;5.834;2022-11-15T01:05:13;23.60;;;16.17;;
76113;SDS011;64845;53.086;5.834;2022-11-15T01:07:38;26.60;;;16.88;;
76113;SDS011;64845;53.086;5.834;2022-11-15T01:10:04;26.92;;;17.10;;
76113;SDS011;64845;53.086;5.834;2022-11-15T01:12:30;25.98;;;16.75;;
76113;SDS011;64845;53.086;5.834;2022-11-15T01:14:55;23.65;;;15.98;;
76113;SDS011;64845;53.086;5.834;2022-11-15T01:17:21;28.35;;;17.70;;
76113;SDS011;64845;53.086;5.834;2022-11-15T01:19:46;29.65;;;17.48;;
76113;SDS011;64845;53.086;5.834;2022-11-15T01:22:11;35.22;;;18.73;;
76113;SDS011;64845;53.086;5.834;2022-11-15T01:24:37;32.92;;;18.42;;
76113;SDS011;64845;53.086;5.834;2022-11-15T01:27:02;30.88;;;18.77;;
76113;SDS011;64845;53.086;5.834;2022-11-15T01:29:28;32.33;;;20.05;;
76113;SDS011;64845;53.086;5.834;2022-11-15T01:31:54;32.53;;;19.60;;
76113;SDS011;64845;53.086;5.834;2022-11-15T01:34:20;35.60;;;20.40;;
76113;SDS011;64845;53.086;5.834;2022-11-15T01:36:45;34.53;;;21.45;;
76113;SDS011;64845;53.086;5.834;2022-11-15T01:39:10;34.28;;;19.33;;
76113;SDS011;64845;53.086;5.834;2022-11-15T01:41:36;31.90;;;20.55;;
76113;SDS011;64845;53.086;5.834;2022-11-15T01:49:40;31.73;;;19.20;;
76113;SDS011;64845;53.086;5.834;2022-11-15T01:52:13;32.63;;;19.70;;
76113;SDS011;64845;53.086;5.834;2022-11-15T01:54:43;28.75;;;18.00;;
76113;SDS011;64845;53.086;5.834;2022-11-15T01:57:09;35.08;;;17.38;;
76113;SDS011;64845;53.086;5.834;2022-11-15T01:59:37;31.50;;;18.58;;
76113;SDS011;64845;53.086;5.834;2022-11-15T02:02:05;31.92;;;18.85;;
76113;SDS011;64845;53.086;5.834;2022-11-15T02:04:32;33.15;;;20.17;;
76113;SDS011;64845;53.086;5.834;2022-11-15T02:06:59;32.30;;;19.25;;
76113;SDS011;64845;53.086;5.834;2022-11-15T02:09:27;33.50;;;19.25;;
76113;SDS011;64845;53.086;5.834;2022-11-15T02:11:53;32.97;;;18.88;;
76113;SDS011;64845;53.086;5.834;2022-11-15T02:14:20;32.47;;;18.75;;
76113;SDS011;64845;53.086;5.834;2022-11-15T02:21:41;32.28;;;19.55;;
76113;SDS011;64845;53.086;5.834;2022-11-15T02:30:00;35.80;;;19.25;;
76113;SDS011;64845;53.086;5.834;2022-11-15T02:43:22;37.78;;;20.98;;
76113;SDS011;64845;53.086;5.834;2022-11-15T02:49:15;41.60;;;21.63;;
76113;SDS011;64845;53.086;5.834;2022-11-15T02:51:41;46.28;;;21.98;;
76113;SDS011;64845;53.086;5.834;2022-11-15T02:54:13;43.42;;;21.63;;
76113;SDS011;64845;53.086;5.834;2022-11-15T02:56:40;45.00;;;22.05;;
76113;SDS011;64845;53.086;5.834;2022-11-15T02:59:20;47.78;;;22.70;;
76113;SDS011;64845;53.086;5.834;2022-11-15T03:02:18;48.10;;;23.03;;
76113;SDS011;64845;53.086;5.834;2022-11-15T03:15:24;51.13;;;23.75;;
76113;SDS011;64845;53.086;5.834;2022-11-15T03:18:30;59.67;;;23.25;;
76113;SDS011;64845;53.086;5.834;2022-11-15T03:20:54;57.33;;;25.30;;
76113;SDS011;64845;53.086;5.834;2022-11-15T03:23:22;58.33;;;24.33;;
76113;SDS011;64845;53.086;5.834;2022-11-15T03:25:50;64.00;;;25.40;;
76113;SDS011;64845;53.086;5.834;2022-11-15T03:28:25;64.60;;;24.50;;
76113;SDS011;64845;53.086;5.834;2022-11-15T03:30:58;71.25;;;25.45;;
76113;SDS011;64845;53.086;5.834;2022-11-15T03:33:25;59.83;;;24.42;;
76113;SDS011;64845;53.086;5.834;2022-11-15T03:35:53;61.22;;;24.27;;
76113;SDS011;64845;53.086;5.834;2022-11-15T03:38:23;64.32;;;25.58;;
76113;SDS011;64845;53.086;5.834;2022-11-15T03:41:00;66.63;;;25.45;;
76113;SDS011;64845;53.086;5.834;2022-11-15T03:43:53;66.72;;;24.65;;
76113;SDS011;64845;53.086;5.834;2022-11-15T03:46:23;72.63;;;25.92;;
76113;SDS011;64845;53.086;5.834;2022-11-15T03:48:53;64.28;;;25.88;;
76113;SDS011;64845;53.086;5.834;2022-11-15T03:51:25;71.78;;;25.45;;
76113;SDS011;64845;53.086;5.834;2022-11-15T03:53:51;67.13;;;26.23;;
76113;SDS011;64845;53.086;5.834;2022-11-15T03:56:16;70.38;;;25.55;;
76113;SDS011;64845;53.086;5.834;2022-11-15T03:58:42;63.72;;;24.52;;
76113;SDS011;64845;53.086;5.834;2022-11-15T04:01:07;69.18;;;26.40;;
76113;SDS011;64845;53.086;5.834;2022-11-15T04:03:32;65.07;;;25.40;;
76113;SDS011;64845;53.086;5.834;2022-11-15T04:05:58;69.53;;;26.70;;
76113;SDS011;64845;53.086;5.834;2022-11-15T04:08:23;64.30;;;25.80;;
76113;SDS011;64845;53.086;5.834;2022-11-15T04:10:49;62.67;;;25.08;;
76113;SDS011;64845;53.086;5.834;2022-11-15T04:13:14;52.88;;;23.38;;
76113;SDS011;64845;53.086;5.834;2022-11-15T04:15:40;61.90;;;24.67;;
76113;SDS011;64845;53.086;5.834;2022-11-15T04:18:05;57.38;;;24.15;;
76113;SDS011;64845;53.086;5.834;2022-11-15T04:20:31;62.55;;;23.25;;
76113;SDS011;64845;53.086;5.834;2022-11-15T04:23:16;59.65;;;23.65;;
76113;SDS011;64845;53.086;5.834;2022-11-15T04:26:06;61.97;;;23.10;;
76113;SDS011;64845;53.086;5.834;2022-11-15T04:28:36;50.95;;;23.42;;
76113;SDS011;64845;53.086;5.834;2022-11-15T04:31:21;62.30;;;25.15;;
76113;SDS011;64845;53.086;5.834;2022-11-15T04:33:46;62.00;;;23.05;;
76113;SDS011;64845;53.086;5.834;2022-11-15T04:36:11;58.60;;;24.10;;
76113;SDS011;64845;53.086;5.834;2022-11-15T04:38:55;61.70;;;23.50;;
76113;SDS011;64845;53.086;5.834;2022-11-15T04:41:21;65.72;;;24.65;;
76113;SDS011;64845;53.086;5.834;2022-11-15T04:43:46;59.80;;;23.52;;
76113;SDS011;64845;53.086;5.834;2022-11-15T04:46:11;61.72;;;24.20;;
76113;SDS011;64845;53.086;5.834;2022-11-15T04:48:37;69.20;;;25.67;;
76113;SDS011;64845;53.086;5.834;2022-11-15T04:51:02;69.47;;;25.15;;
76113;SDS011;64845;53.086;5.834;2022-11-15T04:53:28;69.00;;;25.67;;
76113;SDS011;64845;53.086;5.834;2022-11-15T04:55:53;86.90;;;28.13;;
76113;SDS011;64845;53.086;5.834;2022-11-15T04:58:18;81.53;;;27.05;;
76113;SDS011;64845;53.086;5.834;2022-11-15T05:00:44;100.03;;;28.10;;
76113;SDS011;64845;53.086;5.834;2022-11-15T05:03:09;97.53;;;28.35;;
76113;SDS011;64845;53.086;5.834;2022-11-15T05:05:53;106.18;;;27.42;;
76113;SDS011;64845;53.086;5.834;2022-11-15T05:08:18;100.65;;;28.77;;
76113;SDS011;64845;53.086;5.834;2022-11-15T05:10:44;100.55;;;29.85;;
76113;SDS011;64845;53.086;5.834;2022-11-15T05:13:09;114.43;;;32.17;;
76113;SDS011;64845;53.086;5.834;2022-11-15T05:15:35;104.63;;;30.45;;
76113;SDS011;64845;53.086;5.834;2022-11-15T05:18:00;122.75;;;31.25;;
76113;SDS011;64845;53.086;5.834;2022-11-15T05:20:25;106.05;;;31.90;;
76113;SDS011;64845;53.086;5.834;2022-11-15T05:22:52;109.10;;;32.42;;
76113;SDS011;64845;53.086;5.834;2022-11-15T05:25:18;104.38;;;31.77;;
76113;SDS011;64845;53.086;5.834;2022-11-15T05:27:44;109.95;;;33.38;;
76113;SDS011;64845;53.086;5.834;2022-11-15T05:30:09;107.63;;;32.47;;
76113;SDS011;64845;53.086;5.834;2022-11-15T05:32:35;106.72;;;32.97;;
76113;SDS011;64845;53.086;5.834;2022-11-15T05:35:01;130.57;;;35.50;;
76113;SDS011;64845;53.086;5.834;2022-11-15T05:37:28;110.78;;;32.15;;
76113;SDS011;64845;53.086;5.834;2022-11-15T05:39:54;119.15;;;34.83;;
76113;SDS011;64845;53.086;5.834;2022-11-15T05:42:19;117.45;;;34.13;;
76113;SDS011;64845;53.086;5.834;2022-11-15T05:44:46;121.43;;;35.70;;
76113;SDS011;64845;53.086;5.834;2022-11-15T05:47:15;122.78;;;33.13;;
76113;SDS011;64845;53.086;5.834;2022-11-15T05:49:52;133.30;;;36.38;;
76113;SDS011;64845;53.086;5.834;2022-11-15T05:52:20;140.18;;;35.88;;
76113;SDS011;64845;53.086;5.834;2022-11-15T05:54:48;120.20;;;35.78;;
76113;SDS011;64845;53.086;5.834;2022-11-15T05:57:14;120.70;;;35.05;;
76113;SDS011;64845;53.086;5.834;2022-11-15T05:59:40;111.97;;;33.60;;
76113;SDS011;64845;53.086;5.834;2022-11-15T06:02:08;104.53;;;33.95;;
76113;SDS011;64845;53.086;5.834;2022-11-15T06:04:34;103.93;;;34.28;;
76113;SDS011;64845;53.086;5.834;2022-11-15T06:06:59;121.30;;;36.67;;
76113;SDS011;64845;53.086;5.834;2022-11-15T06:09:25;106.00;;;34.10;;
76113;SDS011;64845;53.086;5.834;2022-11-15T06:11:50;115.22;;;33.78;;
76113;SDS011;64845;53.086;5.834;2022-11-15T06:14:15;102.13;;;33.72;;
76113;SDS011;64845;53.086;5.834;2022-11-15T06:16:41;101.53;;;34.15;;
76113;SDS011;64845;53.086;5.834;2022-11-15T06:19:06;108.15;;;33.95;;
76113;SDS011;64845;53.086;5.834;2022-11-15T06:21:32;100.90;;;35.15;;
76113;SDS011;64845;53.086;5.834;2022-11-15T06:23:58;99.80;;;33.67;;
76113;SDS011;64845;53.086;5.834;2022-11-15T06:26:23;108.15;;;35.22;;
76113;SDS011;64845;53.086;5.834;2022-11-15T06:28:48;115.68;;;34.95;;
76113;SDS011;64845;53.086;5.834;2022-11-15T06:31:14;113.80;;;34.47;;
76113;SDS011;64845;53.086;5.834;2022-11-15T06:33:39;104.95;;;36.28;;
76113;SDS011;64845;53.086;5.834;2022-11-15T06:36:09;118.00;;;37.83;;
76113;SDS011;64845;53.086;5.834;2022-11-15T06:38:38;120.07;;;37.42;;
76113;SDS011;64845;53.086;5.834;2022-11-15T06:41:05;110.13;;;36.75;;
76113;SDS011;64845;53.086;5.834;2022-11-15T06:43:32;127.93;;;37.20;;
76113;SDS011;64845;53.086;5.834;2022-11-15T06:45:58;131.10;;;38.90;;
76113;SDS011;64845;53.086;5.834;2022-11-15T06:48:28;112.53;;;39.35;;
76113;SDS011;64845;53.086;5.834;2022-11-15T06:51:21;115.75;;;37.30;;
76113;SDS011;64845;53.086;5.834;2022-11-15T06:53:46;126.95;;;39.28;;
76113;SDS011;64845;53.086;5.834;2022-11-15T06:56:12;137.15;;;40.42;;
76113;SDS011;64845;53.086;5.834;2022-11-15T06:58:37;123.22;;;38.25;;
76113;SDS011;64845;53.086;5.834;2022-11-15T07:01:04;126.30;;;40.35;;
76113;SDS011;64845;53.086;5.834;2022-11-15T07:03:34;117.60;;;39.28;;
76113;SDS011;64845;53.086;5.834;2022-11-15T07:06:00;135.77;;;39.70;;
76113;SDS011;64845;53.086;5.834;2022-11-15T07:08:26;127.65;;;39.38;;
76113;SDS011;64845;53.086;5.834;2022-11-15T07:10:53;126.63;;;40.25;;
76113;SDS011;64845;53.086;5.834;2022-11-15T07:13:19;112.20;;;37.88;;
76113;SDS011;64845;53.086;5.834;2022-11-15T07:15:44;111.57;;;38.45;;
76113;SDS011;64845;53.086;5.834;2022-11-15T07:18:10;110.28;;;38.75;;
76113;SDS011;64845;53.086;5.834;2022-11-15T07:20:35;112.38;;;36.63;;
76113;SDS011;64845;53.086;5.834;2022-11-15T07:23:04;102.88;;;36.60;;
76113;SDS011;64845;53.086;5.834;2022-11-15T07:25:30;110.18;;;38.13;;
76113;SDS011;64845;53.086;5.834;2022-11-15T07:27:56;104.35;;;36.88;;
76113;SDS011;64845;53.086;5.834;2022-11-15T07:30:22;89.38;;;33.97;;
76113;SDS011;64845;53.086;5.834;2022-11-15T07:32:58;97.28;;;36.67;;
76113;SDS011;64845;53.086;5.834;2022-11-15T07:35:25;105.00;;;36.30;;
76113;SDS011;64845;53.086;5.834;2022-11-15T07:37:56;97.50;;;35.97;;
76113;SDS011;64845;53.086;5.834;2022-11-15T07:40:23;91.25;;;35.95;;
76113;SDS011;64845;53.086;5.834;2022-11-15T07:42:49;87.75;;;35.13;;
76113;SDS011;64845;53.086;5.834;2022-11-15T07:45:18;91.20;;;35.97;;
76113;SDS011;64845;53.086;5.834;2022-11-15T07:47:48;92.78;;;36.85;;
76113;SDS011;64845;53.086;5.834;2022-11-15T07:50:14;68.47;;;32.05;;
76113;SDS011;64845;53.086;5.834;2022-11-15T07:52:40;67.57;;;30.80;;
76113;SDS011;64845;53.086;5.834;2022-11-15T07:55:06;63.78;;;31.42;;
76113;SDS011;64845;53.086;5.834;2022-11-15T07:57:32;78.00;;;32.47;;
76113;SDS011;64845;53.086;5.834;2022-11-15T07:59:57;68.95;;;31.98;;
76113;SDS011;64845;53.086;5.834;2022-11-15T08:02:22;70.30;;;31.40;;
76113;SDS011;64845;53.086;5.834;2022-11-15T08:04:48;66.63;;;32.13;;
76113;SDS011;64845;53.086;5.834;2022-11-15T08:07:13;65.63;;;30.63;;
76113;SDS011;64845;53.086;5.834;2022-11-15T08:09:38;66.97;;;32.38;;
76113;SDS011;64845;53.086;5.834;2022-11-15T08:12:04;68.97;;;31.38;;
76113;SDS011;64845;53.086;5.834;2022-11-15T08:14:30;63.17;;;30.60;;
76113;SDS011;64845;53.086;5.834;2022-11-15T08:16:55;62.45;;;30.17;;
76113;SDS011;64845;53.086;5.834;2022-11-15T08:19:21;57.20;;;29.15;;
76113;SDS011;64845;53.086;5.834;2022-11-15T08:21:46;63.35;;;30.65;;
76113;SDS011;64845;53.086;5.834;2022-11-15T08:24:12;61.45;;;31.08;;
76113;SDS011;64845;53.086;5.834;2022-11-15T08:26:38;72.10;;;31.38;;
76113;SDS011;64845;53.086;5.834;2022-11-15T08:29:04;54.83;;;30.40;;
76113;SDS011;64845;53.086;5.834;2022-11-15T08:31:30;59.78;;;30.50;;
76113;SDS011;64845;53.086;5.834;2022-11-15T08:33:55;59.10;;;30.67;;
76113;SDS011;64845;53.086;5.834;2022-11-15T08:36:20;54.78;;;29.08;;
76113;SDS011;64845;53.086;5.834;2022-11-15T08:38:46;52.47;;;29.58;;
76113;SDS011;64845;53.086;5.834;2022-11-15T08:41:24;52.50;;;29.15;;
76113;SDS011;64845;53.086;5.834;2022-11-15T08:43:53;54.08;;;30.23;;
76113;SDS011;64845;53.086;5.834;2022-11-15T08:46:18;49.00;;;28.17;;
76113;SDS011;64845;53.086;5.834;2022-11-15T08:48:44;60.22;;;28.55;;
76113;SDS011;64845;53.086;5.834;2022-11-15T08:51:09;50.03;;;28.48;;
76113;SDS011;64845;53.086;5.834;2022-11-15T08:53:35;44.45;;;27.30;;
76113;SDS011;64845;53.086;5.834;2022-11-15T08:56:00;45.60;;;26.92;;
76113;SDS011;64845;53.086;5.834;2022-11-15T08:58:26;52.83;;;27.58;;
76113;SDS011;64845;53.086;5.834;2022-11-15T09:00:52;48.10;;;26.50;;
76113;SDS011;64845;53.086;5.834;2022-11-15T09:03:17;47.20;;;26.30;;
76113;SDS011;64845;53.086;5.834;2022-11-15T09:05:42;51.75;;;26.45;;
76113;SDS011;64845;53.086;5.834;2022-11-15T09:08:08;51.38;;;27.63;;
76113;SDS011;64845;53.086;5.834;2022-11-15T09:10:33;46.65;;;26.67;;
76113;SDS011;64845;53.086;5.834;2022-11-15T09:12:58;42.17;;;25.50;;
76113;SDS011;64845;53.086;5.834;2022-11-15T09:15:24;46.75;;;25.63;;
76113;SDS011;64845;53.086;5.834;2022-11-15T09:17:49;39.67;;;23.58;;
76113;SDS011;64845;53.086;5.834;2022-11-15T09:20:15;44.45;;;23.73;;
76113;SDS011;64845;53.086;5.834;2022-11-15T09:22:40;44.63;;;23.38;;
76113;SDS011;64845;53.086;5.834;2022-11-15T09:25:06;41.65;;;23.95;;
76113;SDS011;64845;53.086;5.834;2022-11-15T09:27:32;42.15;;;23.70;;
76113;SDS011;64845;53.086;5.834;2022-11-15T09:29:57;40.10;;;23.48;;
76113;SDS011;64845;53.086;5.834;2022-11-15T09:32:23;45.58;;;23.65;;
76113;SDS011;64845;53.086;5.834;2022-11-15T09:34:51;40.28;;;23.30;;
76113;SDS011;64845;53.086;5.834;2022-11-15T09:37:17;40.83;;;24.30;;
76113;SDS011;64845;53.086;5.834;2022-11-15T09:39:42;42.47;;;24.70;;
76113;SDS011;64845;53.086;5.834;2022-11-15T09:50:17;44.55;;;24.38;;
76113;SDS011;64845;53.086;5.834;2022-11-15T09:52:59;39.08;;;24.00;;
76113;SDS011;64845;53.086;5.834;2022-11-15T09:55:30;44.53;;;24.38;;
76113;SDS011;64845;53.086;5.834;2022-11-15T10:01:02;36.92;;;22.00;;
76113;SDS011;64845;53.086;5.834;2022-11-15T10:03:35;44.53;;;22.65;;
76113;SDS011;64845;53.086;5.834;2022-11-15T10:06:04;35.53;;;21.48;;
76113;SDS011;64845;53.086;5.834;2022-11-15T10:11:15;39.72;;;22.83;;
76113;SDS011;64845;53.086;5.834;2022-11-15T10:13:46;36.60;;;21.43;;
76113;SDS011;64845;53.086;5.834;2022-11-15T10:18:55;36.90;;;22.30;;
76113;SDS011;64845;53.086;5.834;2022-11-15T10:21:40;36.67;;;21.67;;
76113;SDS011;64845;53.086;5.834;2022-11-15T10:24:27;32.85;;;19.23;;
76113;SDS011;64845;53.086;5.834;2022-11-15T10:26:58;34.35;;;20.08;;
76113;SDS011;64845;53.086;5.834;2022-11-15T10:29:25;31.85;;;18.92;;
76113;SDS011;64845;53.086;5.834;2022-11-15T10:31:51;33.42;;;18.13;;
76113;SDS011;64845;53.086;5.834;2022-11-15T10:34:18;32.55;;;19.30;;
76113;SDS011;64845;53.086;5.834;2022-11-15T10:36:47;33.88;;;18.33;;
76113;SDS011;64845;53.086;5.834;2022-11-15T10:39:21;28.02;;;16.27;;
76113;SDS011;64845;53.086;5.834;2022-11-15T10:41:46;29.63;;;18.13;;
76113;SDS011;64845;53.086;5.834;2022-11-15T10:44:19;29.15;;;17.67;;
76113;SDS011;64845;53.086;5.834;2022-11-15T10:49:22;27.85;;;17.17;;
76113;SDS011;64845;53.086;5.834;2022-11-15T10:54:44;29.00;;;16.83;;
76113;SDS011;64845;53.086;5.834;2022-11-15T10:57:15;34.78;;;16.90;;
76113;SDS011;64845;53.086;5.834;2022-11-15T11:00:26;23.92;;;14.80;;
76113;SDS011;64845;53.086;5.834;2022-11-15T11:05:32;25.38;;;14.82;;
76113;SDS011;64845;53.086;5.834;2022-11-15T11:08:23;27.63;;;13.98;;
76113;SDS011;64845;53.086;5.834;2022-11-15T11:10:55;26.30;;;15.93;;
76113;SDS011;64845;53.086;5.834;2022-11-15T11:13:29;20.25;;;13.68;;
76113;SDS011;64845;53.086;5.834;2022-11-15T11:16:00;28.05;;;14.38;;
76113;SDS011;64845;53.086;5.834;2022-11-15T11:18:30;24.90;;;14.52;;
76113;SDS011;64845;53.086;5.834;2022-11-15T11:21:03;21.67;;;14.27;;
76113;SDS011;64845;53.086;5.834;2022-11-15T11:23:41;25.25;;;12.98;;
76113;SDS011;64845;53.086;5.834;2022-11-15T11:29:41;22.27;;;13.27;;
76113;SDS011;64845;53.086;5.834;2022-11-15T11:32:38;20.58;;;12.80;;
76113;SDS011;64845;53.086;5.834;2022-11-15T11:35:14;17.08;;;10.93;;
76113;SDS011;64845;53.086;5.834;2022-11-15T11:49:12;18.05;;;10.40;;
76113;SDS011;64845;53.086;5.834;2022-11-15T11:51:46;21.05;;;11.27;;
76113;SDS011;64845;53.086;5.834;2022-11-15T11:54:31;15.13;;;9.95;;
76113;SDS011;64845;53.086;5.834;2022-11-15T11:57:19;13.20;;;9.63;;
76113;SDS011;64845;53.086;5.834;2022-11-15T12:02:46;12.07;;;9.30;;
76113;SDS011;64845;53.086;5.834;2022-11-15T12:10:39;14.73;;;9.27;;
76113;SDS011;64845;53.086;5.834;2022-11-15T12:13:07;11.45;;;8.73;;
76113;SDS011;64845;53.086;5.834;2022-11-15T12:15:39;12.13;;;8.23;;
76113;SDS011;64845;53.086;5.834;2022-11-15T12:18:15;18.33;;;8.73;;
76113;SDS011;64845;53.086;5.834;2022-11-15T12:20:42;12.90;;;6.75;;
76113;SDS011;64845;53.086;5.834;2022-11-15T12:23:33;10.10;;;5.90;;
76113;SDS011;64845;53.086;5.834;2022-11-15T12:28:47;12.40;;;5.57;;
76113;SDS011;64845;53.086;5.834;2022-11-15T12:36:45;8.55;;;4.70;;
76113;SDS011;64845;53.086;5.834;2022-11-15T12:39:12;8.80;;;4.68;;
76113;SDS011;64845;53.086;5.834;2022-11-15T12:41:39;12.15;;;4.63;;
76113;SDS011;64845;53.086;5.834;2022-11-15T12:44:13;5.50;;;3.70;;
76113;SDS011;64845;53.086;5.834;2022-11-15T12:47:03;8.52;;;3.53;;
76113;SDS011;64845;53.086;5.834;2022-11-15T12:49:47;6.43;;;3.40;;
76113;SDS011;64845;53.086;5.834;2022-11-15T12:52:13;5.28;;;3.13;;
76113;SDS011;64845;53.086;5.834;2022-11-15T13:02:20;7.28;;;3.00;;
76113;SDS011;64845;53.086;5.834;2022-11-15T13:28:01;4.82;;;3.05;;
76113;SDS011;64845;53.086;5.834;2022-11-15T13:30:29;4.68;;;3.03;;
76113;SDS011;64845;53.086;5.834;2022-11-15T13:32:56;3.53;;;2.60;;
76113;SDS011;64845;53.086;5.834;2022-11-15T13:35:31;5.13;;;2.92;;
76113;SDS011;64845;53.086;5.834;2022-11-15T13:38:03;6.47;;;3.33;;
76113;SDS011;64845;53.086;5.834;2022-11-15T13:40:34;8.45;;;3.47;;
76113;SDS011;64845;53.086;5.834;2022-11-15T13:48:39;4.55;;;2.92;;
76113;SDS011;64845;53.086;5.834;2022-11-15T13:51:49;8.70;;;3.40;;
76113;SDS011;64845;53.086;5.834;2022-11-15T13:59:34;4.80;;;2.63;;
76113;SDS011;64845;53.086;5.834;2022-11-15T14:02:03;6.03;;;2.50;;
76113;SDS011;64845;53.086;5.834;2022-11-15T14:04:38;7.68;;;2.72;;
76113;SDS011;64845;53.086;5.834;2022-11-15T14:07:14;15.23;;;3.15;;
76113;SDS011;64845;53.086;5.834;2022-11-15T14:09:44;4.78;;;3.00;;
76113;SDS011;64845;53.086;5.834;2022-11-15T14:14:55;5.72;;;2.60;;
76113;SDS011;64845;53.086;5.834;2022-11-15T14:19:53;4.75;;;2.33;;
76113;SDS011;64845;53.086;5.834;2022-11-15T14:22:25;7.03;;;2.20;;
76113;SDS011;64845;53.086;5.834;2022-11-15T14:30:41;6.57;;;2.33;;
76113;SDS011;64845;53.086;5.834;2022-11-15T14:33:17;2.33;;;2.08;;
76113;SDS011;64845;53.086;5.834;2022-11-15T14:35:46;6.63;;;2.38;;
76113;SDS011;64845;53.086;5.834;2022-11-15T14:38:11;5.38;;;2.25;;
76113;SDS011;64845;53.086;5.834;2022-11-15T14:40:37;9.18;;;3.08;;
76113;SDS011;64845;53.086;5.834;2022-11-15T14:43:02;3.58;;;2.15;;
76113;SDS011;64845;53.086;5.834;2022-11-15T14:45:28;6.80;;;2.30;;
76113;SDS011;64845;53.086;5.834;2022-11-15T14:47:53;3.78;;;2.10;;
76113;SDS011;64845;53.086;5.834;2022-11-15T14:50:19;5.53;;;1.92;;
76113;SDS011;64845;53.086;5.834;2022-11-15T14:52:46;6.55;;;1.98;;
76113;SDS011;64845;53.086;5.834;2022-11-15T14:55:31;4.65;;;2.17;;
76113;SDS011;64845;53.086;5.834;2022-11-15T14:58:00;4.75;;;1.70;;
76113;SDS011;64845;53.086;5.834;2022-11-15T15:00:28;3.55;;;1.90;;
76113;SDS011;64845;53.086;5.834;2022-11-15T15:02:54;3.72;;;1.83;;
76113;SDS011;64845;53.086;5.834;2022-11-15T15:05:21;4.68;;;2.08;;
76113;SDS011;64845;53.086;5.834;2022-11-15T15:08:07;4.10;;;2.25;;
76113;SDS011;64845;53.086;5.834;2022-11-15T15:10:37;4.03;;;1.88;;
76113;SDS011;64845;53.086;5.834;2022-11-15T15:13:05;5.38;;;2.15;;
76113;SDS011;64845;53.086;5.834;2022-11-15T15:15:37;3.85;;;2.00;;
76113;SDS011;64845;53.086;5.834;2022-11-15T15:18:03;8.52;;;2.72;;
76113;SDS011;64845;53.086;5.834;2022-11-15T15:20:31;6.07;;;2.10;;
76113;SDS011;64845;53.086;5.834;2022-11-15T15:22:57;3.63;;;1.90;;
76113;SDS011;64845;53.086;5.834;2022-11-15T15:25:23;3.80;;;1.73;;
76113;SDS011;64845;53.086;5.834;2022-11-15T15:27:52;4.57;;;2.05;;
76113;SDS011;64845;53.086;5.834;2022-11-15T15:30:18;5.30;;;1.90;;
76113;SDS011;64845;53.086;5.834;2022-11-15T15:32:43;5.03;;;2.08;;
76113;SDS011;64845;53.086;5.834;2022-11-15T15:35:11;4.35;;;2.10;;
76113;SDS011;64845;53.086;5.834;2022-11-15T15:37:37;7.82;;;2.17;;
76113;SDS011;64845;53.086;5.834;2022-11-15T15:40:03;6.22;;;2.65;;
76113;SDS011;64845;53.086;5.834;2022-11-15T15:42:35;8.43;;;4.45;;
76113;SDS011;64845;53.086;5.834;2022-11-15T15:45:00;7.47;;;3.10;;
76113;SDS011;64845;53.086;5.834;2022-11-15T15:47:25;5.57;;;2.95;;
76113;SDS011;64845;53.086;5.834;2022-11-15T15:49:51;7.63;;;3.03;;
76113;SDS011;64845;53.086;5.834;2022-11-15T15:52:16;4.15;;;1.95;;
76113;SDS011;64845;53.086;5.834;2022-11-15T15:54:42;3.03;;;1.90;;
76113;SDS011;64845;53.086;5.834;2022-11-15T15:57:08;5.53;;;2.60;;
76113;SDS011;64845;53.086;5.834;2022-11-15T15:59:37;7.10;;;1.92;;
76113;SDS011;64845;53.086;5.834;2022-11-15T16:02:02;4.93;;;1.77;;
76113;SDS011;64845;53.086;5.834;2022-11-15T16:04:27;3.75;;;1.70;;
76113;SDS011;64845;53.086;5.834;2022-11-15T16:06:57;2.65;;;1.63;;
76113;SDS011;64845;53.086;5.834;2022-11-15T16:09:23;7.20;;;2.40;;
76113;SDS011;64845;53.086;5.834;2022-11-15T16:12:09;3.10;;;1.80;;
76113;SDS011;64845;53.086;5.834;2022-11-15T16:14:34;7.95;;;2.28;;
76113;SDS011;64845;53.086;5.834;2022-11-15T16:17:00;6.00;;;2.22;;
76113;SDS011;64845;53.086;5.834;2022-11-15T16:19:25;5.60;;;2.42;;
76113;SDS011;64845;53.086;5.834;2022-11-15T16:21:50;4.72;;;2.50;;
76113;SDS011;64845;53.086;5.834;2022-11-15T16:24:19;4.97;;;2.53;;
76113;SDS011;64845;53.086;5.834;2022-11-15T16:26:45;7.03;;;2.85;;
76113;SDS011;64845;53.086;5.834;2022-11-15T16:29:12;4.95;;;2.92;;
76113;SDS011;64845;53.086;5.834;2022-11-15T16:31:37;4.70;;;2.60;;
76113;SDS011;64845;53.086;5.834;2022-11-15T16:34:03;7.90;;;2.72;;
76113;SDS011;64845;53.086;5.834;2022-11-15T16:36:30;6.10;;;3.30;;
76113;SDS011;64845;53.086;5.834;2022-11-15T16:38:57;6.22;;;3.30;;
76113;SDS011;64845;53.086;5.834;2022-11-15T16:41:24;6.55;;;3.33;;
76113;SDS011;64845;53.086;5.834;2022-11-15T16:43:50;14.60;;;10.05;;
76113;SDS011;64845;53.086;5.834;2022-11-15T16:46:16;15.63;;;6.22;;
76113;SDS011;64845;53.086;5.834;2022-11-15T16:48:47;7.53;;;4.30;;
76113;SDS011;64845;53.086;5.834;2022-11-15T16:51:13;6.45;;;4.50;;
76113;SDS011;64845;53.086;5.834;2022-11-15T16:53:38;9.60;;;4.32;;
76113;SDS011;64845;53.086;5.834;2022-11-15T16:56:49;7.72;;;3.83;;
76113;SDS011;64845;53.086;5.834;2022-11-15T16:58:54;6.80;;;3.53;;
76113;SDS011;64845;53.086;5.834;2022-11-15T17:01:33;4.50;;;3.33;;
76113;SDS011;64845;53.086;5.834;2022-11-15T17:04:01;5.63;;;3.30;;
76113;SDS011;64845;53.086;5.834;2022-11-15T17:06:36;7.88;;;3.42;;